Time;durP1;ratioP1;P1;durP2;ratioP2;P2;SDS_P1;SDS_P2;PMS_P1;PMS_P2;Temp;Humidity;BMP_temperature;BMP_pressure;BME280_temperature;BME280_humidity;BME280_pressure;Samples;Min_cycle;Max_cycle;Signal;HPM_P1;HPM_P2
2023/02/28 00:00:53;;;;;;;18.73;11.45;;;;;;;2.68;81.43;98887.34;4916907;29;20423;-80
2023/02/28 00:03:20;;;;;;;16.98;10.88;;;;;;;2.67;81.23;98881.22;4949728;29;20059;-79
2023/02/28 00:05:46;;;;;;;18.10;11.30;;;;;;;2.71;80.93;98881.91;4934544;29;20522;-80
2023/02/28 00:08:13;;;;;;;19.60;11.45;;;;;;;2.73;80.96;98880.03;4934269;29;20052;-79
2023/02/28 00:10:38;;;;;;;20.98;11.95;;;;;;;2.78;80.45;98885.03;4934654;29;20174;-79
2023/02/28 00:13:06;;;;;;;17.60;11.68;;;;;;;2.72;80.60;98872.19;4934515;29;20138;-80
2023/02/28 00:15:33;;;;;;;18.35;12.13;;;;;;;2.79;80.40;98871.78;4934323;29;20039;-79
2023/02/28 00:17:59;;;;;;;17.88;11.70;;;;;;;2.81;80.26;98871.69;4936017;29;20055;-80
2023/02/28 00:20:25;;;;;;;20.35;11.63;;;;;;;2.80;80.57;98872.63;4934228;29;20044;-79
2023/02/28 00:22:52;;;;;;;16.98;11.35;;;;;;;2.82;80.50;98865.44;4935453;29;20105;-79
2023/02/28 00:25:23;;;;;;;18.33;11.80;;;;;;;2.83;80.46;98865.38;4950438;29;20052;-81
2023/02/28 00:27:49;;;;;;;18.10;11.90;;;;;;;2.84;79.80;98867.06;4918866;29;20040;-79
2023/02/28 00:30:18;;;;;;;16.67;11.05;;;;;;;2.86;79.60;98870.50;4935309;29;20410;-80
2023/02/28 00:32:44;;;;;;;15.95;11.13;;;;;;;2.70;79.45;98874.06;4934313;29;20091;-79
2023/02/28 00:35:11;;;;;;;18.25;11.38;;;;;;;2.77;79.82;98867.50;4934477;29;20052;-80
2023/02/28 00:37:38;;;;;;;15.63;10.32;;;;;;;2.73;79.65;98874.75;4935508;29;20039;-79
2023/02/28 00:40:06;;;;;;;20.35;11.25;;;;;;;2.64;79.98;98864.72;4949777;29;20044;-79
2023/02/28 00:42:32;;;;;;;19.48;11.00;;;;;;;2.51;79.97;98859.25;4935420;29;20403;-79
2023/02/28 00:44:58;;;;;;;19.67;11.93;;;;;;;2.64;79.96;98852.38;4950133;29;20047;-80
2023/02/28 00:47:25;;;;;;;16.60;10.60;;;;;;;2.60;79.92;98858.75;4934129;29;20048;-79
2023/02/28 00:49:51;;;;;;;21.25;11.57;;;;;;;2.66;80.23;98863.66;4934230;29;20102;-80
2023/02/28 00:52:17;;;;;;;15.55;11.25;;;;;;;2.57;80.08;98853.63;4934155;29;20039;-79
2023/02/28 00:54:43;;;;;;;18.58;11.38;;;;;;;2.71;79.62;98865.19;4933551;29;20418;-80
2023/02/28 00:57:08;;;;;;;18.85;12.00;;;;;;;2.72;79.90;98861.66;4934585;29;20075;-79
2023/02/28 00:59:34;;;;;;;17.00;12.18;;;;;;;2.70;79.48;98861.72;4933915;29;20139;-80
2023/02/28 01:02:00;;;;;;;16.17;11.10;;;;;;;2.71;79.64;98854.63;4899799;29;20148;-79
2023/02/28 01:04:26;;;;;;;17.00;11.57;;;;;;;2.81;79.71;98850.56;4916332;29;20476;-79
2023/02/28 01:06:52;;;;;;;17.83;11.90;;;;;;;2.83;79.36;98851.34;4918497;29;20075;-79
2023/02/28 01:09:18;;;;;;;14.00;10.05;;;;;;;2.65;79.22;98855.84;4934272;29;20388;-80
2023/02/28 01:11:44;;;;;;;18.42;11.30;;;;;;;2.64;79.54;98860.28;4918858;29;20134;-80
2023/02/28 01:14:17;;;;;;;17.48;11.35;;;;;;;2.71;79.48;98849.34;4934114;29;20044;-80
2023/02/28 01:16:45;;;;;;;17.13;10.82;;;;;;;2.72;79.44;98848.44;4934388;29;20096;-78
2023/02/28 01:19:11;;;;;;;17.38;11.07;;;;;;;2.54;79.39;98852.94;4918262;29;20496;-79
2023/02/28 01:21:38;;;;;;;18.73;11.63;;;;;;;2.54;79.66;98848.53;4918278;29;20091;-79
2023/02/28 01:24:06;;;;;;;17.83;11.00;;;;;;;2.53;79.96;98846.81;4917876;29;20119;-78
2023/02/28 01:26:32;;;;;;;18.20;11.68;;;;;;;2.52;80.08;98847.78;4933926;29;20398;-79
2023/02/28 01:28:58;;;;;;;19.60;11.95;;;;;;;2.48;80.14;98843.56;4918095;29;20048;-79
2023/02/28 01:31:25;;;;;;;18.98;11.80;;;;;;;2.43;80.29;98840.34;4934119;29;20040;-79
2023/02/28 01:33:51;;;;;;;23.02;13.23;;;;;;;2.40;80.49;98829.97;4917836;29;20052;-80
2023/02/28 01:36:20;;;;;;;20.83;12.55;;;;;;;2.45;80.12;98820.03;4919100;29;20091;-79
2023/02/28 01:38:46;;;;;;;19.35;12.40;;;;;;;2.46;80.50;98816.44;4933480;29;20070;-80
2023/02/28 01:41:34;;;;;;;20.58;11.93;;;;;;;2.52;80.21;98833.69;4918672;29;20047;-79
2023/02/28 01:44:06;;;;;;;17.45;11.57;;;;;;;2.37;80.06;98835.41;4919705;29;20052;-79
2023/02/28 01:46:35;;;;;;;20.65;12.10;;;;;;;2.32;80.78;98832.16;4919128;29;20044;-80
2023/02/28 01:49:06;;;;;;;19.55;12.85;;;;;;;2.40;80.19;98840.50;4918001;29;20136;-81
2023/02/28 01:51:50;;;;;;;20.08;12.63;;;;;;;2.36;80.29;98834.53;4902508;29;20048;-80
2023/02/28 01:54:21;;;;;;;19.20;11.52;;;;;;;2.15;81.10;98841.84;4934938;29;20052;-81
2023/02/28 01:57:07;;;;;;;20.50;12.93;;;;;;;2.15;80.91;98826.03;4934597;29;20056;-80
2023/02/28 01:59:40;;;;;;;18.88;12.13;;;;;;;2.14;80.85;98824.34;4918195;29;20384;-79
2023/02/28 02:02:06;;;;;;;21.85;13.50;;;;;;;2.25;80.99;98833.44;4933833;29;20130;-80
2023/02/28 02:04:44;;;;;;;38.15;20.52;;;;;;;2.14;81.07;98834.88;4901779;29;20043;-80
2023/02/28 02:07:12;;;;;;;18.27;11.45;;;;;;;2.15;81.56;98841.00;4933242;29;20075;-81
2023/02/28 02:09:38;;;;;;;15.45;9.23;;;;;;;2.12;81.19;98836.75;4917434;29;20040;-80
2023/02/28 02:12:22;;;;;;;24.17;12.55;;;;;;;2.04;81.37;98819.63;4917380;29;20079;-80
2023/02/28 02:15:06;;;;;;;16.83;10.95;;;;;;;1.91;81.33;98817.63;4902054;29;20091;-79
2023/02/28 02:17:45;;;;;;;19.20;12.45;;;;;;;1.96;81.80;98822.69;4932486;29;20058;-81
2023/02/28 02:20:30;;;;;;;18.83;11.43;;;;;;;1.96;81.27;98833.22;4901267;29;20130;-79
2023/02/28 02:23:24;;;;;;;20.80;12.43;;;;;;;2.04;81.08;98827.56;4917049;29;20099;-80
2023/02/28 02:26:28;;;;;;;19.38;12.15;;;;;;;2.16;81.04;98829.50;4901596;29;20086;-80
2023/02/28 02:29:20;;;;;;;18.15;12.75;;;;;;;2.06;80.41;98831.78;4936854;29;20402;-79
2023/02/28 02:32:05;;;;;;;17.95;11.73;;;;;;;2.08;79.77;98832.56;4937351;29;20054;-81
2023/02/28 02:35:06;;;;;;;18.65;11.00;;;;;;;2.01;79.76;98827.72;4918204;29;20085;-80
2023/02/28 02:38:01;;;;;;;14.90;8.63;;;;;;;1.89;79.76;98830.06;4917119;29;20400;-79
2023/02/28 02:40:35;;;;;;;23.77;13.13;;;;;;;2.10;79.29;98833.31;4916532;29;20040;-80
2023/02/28 02:43:15;;;;;;;16.92;10.82;;;;;;;2.16;79.34;98814.53;4916815;29;20094;-80
2023/02/28 02:45:59;;;;;;;17.15;11.25;;;;;;;2.28;78.72;98818.28;4916835;29;20044;-79
2023/02/28 02:48:30;;;;;;;18.75;11.52;;;;;;;2.37;78.27;98815.16;4932455;29;20047;-80
2023/02/28 02:51:03;;;;;;;18.15;12.15;;;;;;;2.43;78.31;98808.69;4917586;29;20423;-80
2023/02/28 02:53:37;;;;;;;21.05;12.45;;;;;;;2.46;77.39;98813.81;4932471;29;20048;-81
2023/02/28 02:56:05;;;;;;;18.65;12.75;;;;;;;2.54;77.71;98813.38;4917625;29;20064;-79
2023/02/28 02:58:43;;;;;;;19.43;11.73;;;;;;;2.39;77.20;98801.88;4916698;29;20070;-80
2023/02/28 03:01:27;;;;;;;20.92;12.60;;;;;;;2.37;77.09;98819.56;4900905;29;20485;-80
2023/02/28 03:03:59;;;;;;;18.52;11.68;;;;;;;2.46;76.69;98821.72;4916078;29;20047;-79
2023/02/28 03:06:25;;;;;;;31.38;13.35;;;;;;;2.57;76.96;98821.97;4932317;29;20043;-80
2023/02/28 03:08:51;;;;;;;21.27;12.65;;;;;;;2.64;76.25;98825.97;4916092;29;20075;-79
2023/02/28 03:11:20;;;;;;;26.48;12.30;;;;;;;2.52;75.67;98824.03;4917343;29;20128;-81
2023/02/28 03:14:09;;;;;;;18.42;12.18;;;;;;;2.36;75.14;98823.16;4917469;29;20098;-80
2023/02/28 03:16:37;;;;;;;32.40;13.80;;;;;;;2.39;75.55;98823.00;4931688;29;20099;-79
2023/02/28 03:19:25;;;;;;;18.33;11.07;;;;;;;2.23;74.81;98830.03;4900429;29;20052;-79
2023/02/28 03:22:14;;;;;;;20.45;12.32;;;;;;;2.04;75.34;98822.28;4900410;29;20521;-80
2023/02/28 03:25:00;;;;;;;21.65;12.80;;;;;;;1.96;74.89;98814.78;4934648;29;20048;-79
2023/02/28 03:27:30;;;;;;;21.17;12.57;;;;;;;2.05;75.12;98818.69;4915724;29;20440;-79
2023/02/28 03:30:09;;;;;;;;;;;;;;;2.01;74.75;98828.56;4916433;29;20048;-80
2023/02/28 03:32:52;;;;;;;24.38;13.45;;;;;;;1.94;75.00;98820.13;4931553;29;19958;-79
2023/02/28 03:35:26;;;;;;;20.63;13.15;;;;;;;1.92;74.36;98836.97;4915702;29;20415;-79
2023/02/28 03:38:09;;;;;;;24.75;14.35;;;;;;;1.98;74.97;98843.69;4900610;29;20074;-79
2023/02/28 03:40:38;;;;;;;20.35;13.43;;;;;;;1.90;73.83;98838.81;4931815;28;20164;-81
2023/02/28 03:43:08;;;;;;;;;;;;;;;1.72;72.58;98864.34;4916210;29;20078;-79
2023/02/28 03:45:36;;;;;;;17.77;11.43;;;;;;;1.61;72.25;98862.25;4915447;29;19923;-80
2023/02/28 03:48:40;;;;;;;16.42;10.48;;;;;;;1.44;72.63;98870.16;4916690;29;20496;-80
2023/02/28 03:51:10;;;;;;;17.52;11.30;;;;;;;1.46;72.35;98873.56;4931540;29;20051;-79
2023/02/28 03:53:41;;;;;;;11.82;7.72;;;;;;;1.40;72.80;98863.34;4931057;29;20051;-78
2023/02/28 03:56:15;;;;;;;15.00;9.95;;;;;;;1.41;72.00;98854.53;4930771;29;20448;-79
2023/02/28 03:58:56;;;;;;;13.95;8.88;;;;;;;1.32;71.37;98866.38;4915725;29;20076;-79
2023/02/28 04:01:30;;;;;;;13.57;9.38;;;;;;;1.35;70.67;98896.94;4916853;29;20099;-79
2023/02/28 04:03:56;;;;;;;12.40;8.15;;;;;;;1.26;69.10;98879.00;4931714;29;20048;-80
2023/02/28 04:06:23;;;;;;;11.32;8.35;;;;;;;1.26;68.37;98871.09;4933957;29;20059;-80
2023/02/28 04:08:49;;;;;;;13.73;8.45;;;;;;;1.17;68.09;98857.47;4934590;29;20044;-80
2023/02/28 04:11:32;;;;;;;11.70;6.63;;;;;;;1.15;67.72;98869.84;4901792;29;20039;-79
2023/02/28 04:13:58;;;;;;;12.75;8.57;;;;;;;1.19;67.86;98881.06;4926022;29;20052;-80
2023/02/28 04:16:24;;;;;;;10.77;7.70;;;;;;;1.11;67.98;98881.44;4934437;29;20142;-77
2023/02/28 04:18:50;;;;;;;14.10;7.32;;;;;;;1.69;69.11;98901.38;4918784;29;20071;-79
2023/02/28 04:21:16;;;;;;;10.77;7.18;;;;;;;1.48;66.68;98861.19;4934054;29;20043;-78
2023/02/28 04:23:44;;;;;;;11.40;8.05;;;;;;;1.46;66.96;98853.34;4935287;29;20048;-76
2023/02/28 04:26:10;;;;;;;13.02;8.15;;;;;;;1.27;67.24;98864.88;4949963;29;20047;-79
2023/02/28 04:28:37;;;;;;;24.60;8.05;;;;;;;1.15;67.76;98875.09;4935166;29;20047;-77
2023/02/28 04:31:05;;;;;;;13.98;9.27;;;;;;;1.05;68.51;98884.34;4950361;29;20170;-76
2023/02/28 04:33:32;;;;;;;13.85;8.80;;;;;;;1.04;69.00;98882.66;4918268;29;20081;-84
2023/02/28 04:36:03;;;;;;;15.32;7.93;;;;;;;0.87;69.35;98865.06;4935441;29;20040;-76
2023/02/28 04:38:32;;;;;;;11.27;7.15;;;;;;;0.77;69.67;98862.97;4934454;29;20051;-77
2023/02/28 04:40:59;;;;;;;10.00;6.95;;;;;;;0.69;69.90;98860.69;4936750;29;20534;-78
2023/02/28 04:43:29;;;;;;;14.27;7.57;;;;;;;0.59;68.81;98870.78;4937954;29;20044;-78
2023/02/28 04:45:56;;;;;;;9.02;6.45;;;;;;;0.45;67.02;98910.00;4939071;29;20035;-77
2023/02/28 04:48:24;;;;;;;7.13;4.50;;;;;;;0.30;63.53;98869.53;4938099;29;20056;-78
2023/02/28 04:50:50;;;;;;;5.95;4.57;;;;;;;0.24;63.23;98891.66;4921728;29;20122;-77
2023/02/28 04:53:17;;;;;;;5.47;3.80;;;;;;;0.15;62.77;98907.00;4937320;29;20066;-76
2023/02/28 04:55:43;;;;;;;8.20;3.00;;;;;;;0.25;62.92;98916.19;4953158;29;20430;-78
2023/02/28 04:58:09;;;;;;;6.97;4.15;;;;;;;0.15;62.83;98885.97;4937611;29;20102;-77
2023/02/28 05:00:35;;;;;;;6.88;4.35;;;;;;;0.23;63.22;98881.25;4921311;29;20083;-77
2023/02/28 05:03:01;;;;;;;6.25;4.50;;;;;;;0.23;64.06;98892.59;4921157;29;20505;-77
2023/02/28 05:05:27;;;;;;;5.53;4.63;;;;;;;0.36;63.44;98906.03;4937489;29;20114;-77
2023/02/28 05:07:55;;;;;;;6.60;4.22;;;;;;;0.45;63.64;98899.50;4938485;29;20118;-76
2023/02/28 05:10:22;;;;;;;9.77;5.30;;;;;;;0.44;63.77;98910.94;4937394;29;20047;-77
2023/02/28 05:12:48;;;;;;;7.90;5.38;;;;;;;0.41;63.84;98903.19;4920398;29;20474;-78
2023/02/28 05:15:15;;;;;;;6.60;4.97;;;;;;;0.34;63.74;98915.78;4952974;28;20040;-77
2023/02/28 05:17:41;;;;;;;5.18;4.18;;;;;;;0.41;63.05;98919.81;4953178;29;20138;-77
2023/02/28 05:20:11;;;;;;;7.22;4.65;;;;;;;0.35;62.79;98911.38;4938219;29;20087;-79
2023/02/28 05:22:40;;;;;;;6.70;3.63;;;;;;;0.37;63.26;98925.28;4938448;28;20536;-77
2023/02/28 05:25:09;;;;;;;8.00;4.55;;;;;;;0.42;63.13;98926.81;4952873;28;20384;-77
2023/02/28 05:27:35;;;;;;;7.90;4.43;;;;;;;0.39;62.06;98915.56;4953020;28;20043;-76
2023/02/28 05:30:03;;;;;;;5.25;4.22;;;;;;;0.42;62.41;98941.72;4936774;29;20067;-76
2023/02/28 05:32:30;;;;;;;6.28;4.22;;;;;;;0.42;62.50;98915.44;4936514;29;20091;-76
2023/02/28 05:34:56;;;;;;;4.93;3.83;;;;;;;0.36;62.48;98895.50;4937995;29;20044;-83
2023/02/28 05:37:22;;;;;;;5.03;3.83;;;;;;;0.39;62.70;98929.56;4936841;29;20047;-77
2023/02/28 05:39:48;;;;;;;3.65;2.90;;;;;;;0.27;62.69;98908.25;4936998;29;20051;-74
2023/02/28 05:42:13;;;;;;;3.55;2.50;;;;;;;0.29;62.74;98914.25;4936782;28;20039;-78
2023/02/28 05:44:39;;;;;;;4.53;3.58;;;;;;;0.35;62.81;98919.25;4937544;29;20075;-79
2023/02/28 05:47:05;;;;;;;5.38;3.75;;;;;;;0.48;62.86;98909.88;4936907;29;20138;-77
2023/02/28 05:49:31;;;;;;;4.82;3.60;;;;;;;0.56;62.61;98917.41;4937752;29;20056;-77
2023/02/28 05:51:57;;;;;;;3.92;3.35;;;;;;;0.58;62.07;98926.94;4935458;29;20150;-77
2023/02/28 05:54:22;;;;;;;8.82;4.53;;;;;;;0.62;61.89;98917.97;4936312;28;20051;-79
2023/02/28 05:56:48;;;;;;;7.20;3.97;;;;;;;0.91;61.93;98928.94;4934408;29;20059;-77
2023/02/28 05:59:14;;;;;;;4.80;3.40;;;;;;;0.78;61.59;98901.47;4937257;29;20048;-76
2023/02/28 06:01:47;;;;;;;9.43;3.45;;;;;;;0.81;61.33;98901.34;4936544;29;20051;-77
2023/02/28 06:04:19;;;;;;;4.78;3.38;;;;;;;0.76;61.91;98893.69;4936810;29;20176;-77
2023/02/28 06:06:46;;;;;;;5.72;3.72;;;;;;;0.90;61.77;98891.25;4936285;29;20105;-78
2023/02/28 06:09:12;;;;;;;5.93;4.05;;;;;;;1.03;61.26;98917.81;4951720;28;20490;-79
2023/02/28 06:11:38;;;;;;;3.47;3.13;;;;;;;0.86;61.00;98883.53;4936231;28;20071;-78
2023/02/28 06:14:04;;;;;;;2.88;2.50;;;;;;;0.68;60.83;98901.94;4936672;29;20131;-77
2023/02/28 06:16:33;;;;;;;3.80;3.35;;;;;;;0.92;61.26;98906.94;4936148;29;20044;-77
2023/02/28 06:19:01;;;;;;;8.10;3.70;;;;;;;0.83;60.64;98896.84;4953990;28;20062;-76
2023/02/28 06:21:27;;;;;;;4.45;3.13;;;;;;;0.81;60.81;98906.59;4936256;29;20059;-78
2023/02/28 06:23:54;;;;;;;2.28;2.10;;;;;;;0.91;60.81;98902.63;4935954;29;20627;-76
2023/02/28 06:26:20;;;;;;;5.07;3.97;;;;;;;0.92;61.15;98892.00;4937285;29;20071;-77
2023/02/28 06:28:46;;;;;;;3.60;3.17;;;;;;;1.15;60.38;98890.03;4936215;29;20044;-78
2023/02/28 06:31:15;;;;;;;4.50;3.50;;;;;;;1.19;59.99;98894.22;4935779;29;20050;-77
2023/02/28 06:33:45;;;;;;;2.97;2.67;;;;;;;1.41;59.79;98886.97;4951977;28;20039;-76
2023/02/28 06:36:11;;;;;;;;;;;;;;;1.48;59.46;98869.09;4952205;28;20265;-76
2023/02/28 06:38:38;;;;;;;4.35;3.00;;;;;;;1.36;59.37;98889.00;4951782;29;19926;-75
2023/02/28 06:41:04;;;;;;;4.25;3.60;;;;;;;1.41;59.23;98896.66;4935927;28;20452;-76
2023/02/28 06:43:32;;;;;;;3.83;3.08;;;;;;;1.38;59.69;98883.63;4920672;29;20040;-76
2023/02/28 06:46:01;;;;;;;7.73;3.30;;;;;;;1.47;59.34;98883.19;4950945;28;20118;-76
2023/02/28 06:48:27;;;;;;;5.05;3.63;;;;;;;1.54;59.40;98878.44;4919806;29;20087;-76
2023/02/28 06:51:05;;;;;;;4.05;3.60;;;;;;;2.13;59.31;98888.53;4936152;29;20463;-77
2023/02/28 06:53:31;;;;;;;3.67;3.20;;;;;;;2.11;57.23;98898.31;4920300;29;20474;-76
2023/02/28 06:55:57;;;;;;;4.50;3.53;;;;;;;2.05;57.58;98903.06;4919219;29;20063;-76
2023/02/28 06:58:22;;;;;;;4.65;3.53;;;;;;;1.96;57.20;98904.41;4935249;29;20086;-77
2023/02/28 07:00:51;;;;;;;4.50;3.33;;;;;;;2.09;57.55;98901.97;4935249;29;20094;-77
2023/02/28 07:03:18;;;;;;;4.00;3.40;;;;;;;1.87;57.26;98894.31;4935842;29;20052;-77
2023/02/28 07:05:45;;;;;;;4.70;2.88;;;;;;;1.70;57.58;98890.78;4935077;29;20067;-75
2023/02/28 07:08:11;;;;;;;3.45;3.15;;;;;;;1.58;58.06;98888.78;4935359;29;20043;-78
2023/02/28 07:10:37;;;;;;;5.65;3.90;;;;;;;1.62;57.72;98887.69;4951280;29;20079;-76
2023/02/28 07:13:04;;;;;;;3.40;3.00;;;;;;;1.89;56.90;98892.47;4919183;29;20411;-76
2023/02/28 07:15:30;;;;;;;4.57;3.53;;;;;;;2.04;57.05;98885.53;4934967;29;20047;-78
2023/02/28 07:17:56;;;;;;;4.20;2.92;;;;;;;1.80;57.08;98887.66;4934863;29;20498;-77
2023/02/28 07:20:23;;;;;;;4.47;3.55;;;;;;;1.72;56.84;98884.56;4934865;29;20046;-76
2023/02/28 07:22:55;;;;;;;3.97;3.13;;;;;;;1.61;57.28;98893.84;4918932;29;20495;-77
2023/02/28 07:25:23;;;;;;;7.07;2.80;;;;;;;1.28;56.79;98895.53;4934867;29;20090;-77
2023/02/28 07:27:50;;;;;;;5.47;3.45;;;;;;;1.34;56.62;98880.31;4935953;29;20076;-76
2023/02/28 07:30:16;;;;;;;5.28;3.55;;;;;;;1.38;56.66;98881.00;4934520;29;20522;-77
2023/02/28 07:32:42;;;;;;;3.42;2.78;;;;;;;1.35;56.06;98865.34;4935881;29;20115;-76
2023/02/28 07:35:11;;;;;;;6.65;3.85;;;;;;;1.48;56.06;98865.59;4934801;29;20459;-78
2023/02/28 07:37:37;;;;;;;5.15;3.67;;;;;;;1.46;56.07;98861.25;4936236;29;20043;-77
2023/02/28 07:40:08;;;;;;;3.58;3.20;;;;;;;1.49;55.06;98878.69;4935575;29;20098;-79
2023/02/28 07:42:34;;;;;;;6.32;3.28;;;;;;;1.49;56.17;98883.09;4951570;29;20076;-77
2023/02/28 07:45:04;;;;;;;;;;;;;;;1.58;54.73;98899.31;4935508;29;20048;-77
2023/02/28 07:47:30;;;;;;;4.30;3.13;;;;;;;1.32;55.83;98878.69;4918952;29;19923;-77
2023/02/28 07:49:56;;;;;;;4.70;3.72;;;;;;;1.66;55.91;98891.88;4934771;29;20094;-75
2023/02/28 07:52:23;;;;;;;4.95;3.55;;;;;;;1.90;55.05;98883.63;4936152;29;20462;-77
2023/02/28 07:54:50;;;;;;;4.07;3.22;;;;;;;1.80;54.29;98861.31;4933927;29;20051;-79
2023/02/28 07:57:16;;;;;;;5.78;3.83;;;;;;;1.93;55.16;98872.91;4934398;29;20134;-77
2023/02/28 07:59:42;;;;;;;3.53;3.15;;;;;;;1.90;54.42;98852.84;4934158;29;20146;-77
2023/02/28 08:02:17;;;;;;;6.15;2.92;;;;;;;1.87;55.06;98852.16;4934370;29;20565;-77
2023/02/28 08:04:43;;;;;;;5.95;3.80;;;;;;;2.07;55.41;98851.97;4903017;29;20044;-80
2023/02/28 08:07:12;;;;;;;4.97;3.45;;;;;;;2.28;53.86;98855.22;4934972;29;20447;-78
2023/02/28 08:09:40;;;;;;;6.10;4.07;;;;;;;2.30;54.24;98861.28;4918544;29;20083;-78
2023/02/28 08:12:07;;;;;;;8.63;4.22;;;;;;;2.63;57.28;98858.59;4950576;29;20048;-78
2023/02/28 08:14:33;;;;;;;3.90;3.25;;;;;;;2.71;53.61;98852.88;4935986;29;20084;-80
2023/02/28 08:17:00;;;;;;;5.55;4.00;;;;;;;2.54;53.80;98847.69;4923027;29;20047;-77
2023/02/28 08:19:26;;;;;;;8.02;4.38;;;;;;;2.62;53.65;98841.03;4954575;29;20047;-77
2023/02/28 08:21:51;;;;;;;4.68;3.70;;;;;;;2.77;53.61;98841.13;4939448;29;20122;-77
2023/02/28 08:24:17;;;;;;;12.80;4.45;;;;;;;2.83;53.56;98828.44;4938833;29;20043;-79
2023/02/28 08:26:43;;;;;;;4.47;3.97;;;;;;;2.33;53.93;98839.13;4922998;29;20406;-76
2023/02/28 08:29:09;;;;;;;5.07;4.10;;;;;;;2.40;53.99;98835.22;4938409;29;20051;-77
2023/02/28 08:31:35;;;;;;;5.55;3.83;;;;;;;2.47;53.97;98826.06;4938864;29;20050;-78
2023/02/28 08:34:09;;;;;;;4.68;3.70;;;;;;;2.51;54.03;98822.31;4940278;29;20040;-78
2023/02/28 08:36:35;;;;;;;4.60;3.58;;;;;;;2.71;53.59;98815.94;4923105;29;20051;-76
2023/02/28 08:39:01;;;;;;;5.47;3.63;;;;;;;2.72;53.67;98814.13;4954339;29;20048;-76
2023/02/28 08:41:27;;;;;;;4.80;3.50;;;;;;;2.22;53.70;98817.78;4937951;29;20380;-77
2023/02/28 08:43:53;;;;;;;5.50;3.75;;;;;;;2.56;54.54;98817.66;4938057;29;20044;-77
2023/02/28 08:46:20;;;;;;;4.68;3.30;;;;;;;2.39;54.06;98813.28;4954371;29;20067;-78
2023/02/28 08:48:46;;;;;;;5.47;4.05;;;;;;;2.37;54.12;98809.91;4937711;29;20063;-77
2023/02/28 08:51:21;;;;;;;4.88;4.00;;;;;;;2.47;54.06;98804.94;4921681;29;20095;-77
2023/02/28 08:53:49;;;;;;;6.05;3.95;;;;;;;2.67;53.70;98809.97;4906056;29;20055;-77
2023/02/28 08:56:16;;;;;;;6.35;3.85;;;;;;;2.67;53.67;98801.19;4937920;29;20066;-76
2023/02/28 08:58:43;;;;;;;4.88;4.13;;;;;;;2.42;53.78;98801.72;4937389;29;20054;-77
2023/02/28 09:01:12;;;;;;;5.35;4.10;;;;;;;2.55;53.49;98810.63;4921583;29;20146;-78
2023/02/28 09:03:39;;;;;;;6.22;4.43;;;;;;;2.26;54.37;98806.13;4937554;29;20047;-77
2023/02/28 09:06:05;;;;;;;56.03;29.40;;;;;;;2.39;55.12;98799.25;4938391;28;20047;-77
2023/02/28 09:08:31;;;;;;;5.35;3.83;;;;;;;2.61;54.15;98797.13;4937313;28;20044;-83
2023/02/28 09:10:58;;;;;;;5.60;3.72;;;;;;;2.46;54.29;98797.97;4922425;29;20114;-77
2023/02/28 09:13:24;;;;;;;7.43;5.00;;;;;;;2.58;54.02;98805.19;4937831;29;20462;-77
2023/02/28 09:15:50;;;;;;;5.57;3.72;;;;;;;2.37;54.25;98801.97;4937230;28;20052;-78
2023/02/28 09:18:16;;;;;;;5.95;4.35;;;;;;;2.14;54.95;98803.25;4938522;29;20513;-76
2023/02/28 09:20:43;;;;;;;7.15;4.40;;;;;;;2.25;55.19;98797.38;4953125;29;20047;-79
2023/02/28 09:23:10;;;;;;;7.75;3.85;;;;;;;2.36;54.56;98791.50;4936781;29;20115;-81
2023/02/28 09:25:37;;;;;;;5.43;4.35;;;;;;;2.34;54.61;98772.28;4937068;29;20376;-78
2023/02/28 09:28:03;;;;;;;4.88;3.63;;;;;;;1.91;56.04;98787.78;4938386;28;20047;-79
2023/02/28 09:30:30;;;;;;;4.28;3.35;;;;;;;1.70;56.51;98774.84;4937330;29;20062;-78
2023/02/28 09:32:56;;;;;;;4.60;3.75;;;;;;;1.77;56.92;98766.59;4935887;28;20134;-79
2023/02/28 09:35:26;;;;;;;5.20;3.75;;;;;;;1.80;56.84;98775.19;4936855;28;20067;-79
2023/02/28 09:37:52;;;;;;;4.03;3.20;;;;;;;1.51;57.82;98782.00;4911523;29;20067;-77
2023/02/28 09:40:21;;;;;;;5.38;3.42;;;;;;;1.38;58.30;98779.16;4935243;29;20035;-79
2023/02/28 09:42:49;;;;;;;4.95;3.88;;;;;;;1.60;58.15;98767.50;4934937;29;20063;-79
2023/02/28 09:45:36;;;;;;;5.07;4.10;;;;;;;1.90;57.33;98770.28;4934006;29;20036;-78
2023/02/28 09:48:12;;;;;;;4.75;3.30;;;;;;;1.88;56.68;98770.38;4949409;29;20450;-77
2023/02/28 09:51:03;;;;;;;6.28;4.50;;;;;;;1.88;56.66;98764.22;4936919;29;20123;-80
2023/02/28 09:53:38;;;;;;;5.15;3.95;;;;;;;1.73;57.28;98742.22;4917420;29;20076;-82
2023/02/28 09:56:25;;;;;;;5.53;4.00;;;;;;;1.70;57.11;98745.88;4919962;29;20052;-78
2023/02/28 09:58:58;;;;;;;6.00;3.90;;;;;;;1.48;57.75;98742.66;4947328;28;20062;-77
2023/02/28 10:01:55;;;;;;;4.60;3.70;;;;;;;1.42;57.96;98750.88;4941073;28;20054;-77
2023/02/28 10:04:33;;;;;;;4.13;3.72;;;;;;;1.31;58.30;98748.78;4957246;28;20236;-77
2023/02/28 10:07:06;;;;;;;6.07;3.80;;;;;;;1.11;59.22;98739.31;4957576;28;20530;-78
2023/02/28 10:09:33;;;;;;;5.70;4.43;;;;;;;1.27;58.69;98731.47;4957286;28;20054;-78
2023/02/28 10:12:04;;;;;;;6.03;4.40;;;;;;;1.32;59.24;98723.34;4957321;28;20128;-79
2023/02/28 10:14:34;;;;;;;6.97;4.80;;;;;;;1.49;58.94;98719.81;4957358;28;20521;-77
2023/02/28 10:17:13;;;;;;;4.00;3.42;;;;;;;1.63;58.53;98715.50;4940642;28;20047;-76
2023/02/28 10:20:29;;;;;;;6.00;4.22;;;;;;;1.75;58.29;98703.44;4926060;28;20061;-77
2023/02/28 10:23:07;;;;;;;3.42;3.10;;;;;;;1.60;57.89;98689.31;4902864;28;20046;-76
2023/02/28 10:25:35;;;;;;;5.45;4.07;;;;;;;1.62;58.54;98695.38;4947003;28;20053;-77
2023/02/28 10:28:21;;;;;;;4.72;3.75;;;;;;;1.71;57.62;98699.28;4961182;28;20098;-78
2023/02/28 10:30:50;;;;;;;5.07;3.50;;;;;;;1.54;57.11;98700.19;4948526;28;20048;-76
2023/02/28 10:33:44;;;;;;;10.32;5.30;;;;;;;1.43;57.87;98684.97;4950170;29;20055;-77
2023/02/28 10:36:20;;;;;;;10.02;6.13;;;;;;;1.64;57.53;98682.94;4918445;29;20146;-78
2023/02/28 10:38:47;;;;;;;9.48;5.93;;;;;;;1.59;57.75;98679.72;4933940;29;20048;-77
2023/02/28 10:41:27;;;;;;;7.63;4.88;;;;;;;1.48;57.86;98695.25;4934411;29;20138;-77
2023/02/28 10:44:14;;;;;;;5.07;3.75;;;;;;;1.30;58.17;98680.44;4934461;29;20043;-77
2023/02/28 10:46:42;;;;;;;7.15;4.95;;;;;;;1.32;58.61;98682.06;4950260;29;20051;-76
2023/02/28 10:49:21;;;;;;;12.73;6.10;;;;;;;1.14;58.99;98677.75;4918858;29;20035;-78
2023/02/28 10:51:49;;;;;;;;;;;;;;;1.00;58.78;98691.63;4934662;29;20051;-77
2023/02/28 10:54:18;;;;;;;8.50;5.43;;;;;;;1.17;59.13;98677.59;4933361;29;19926;-78
2023/02/28 10:56:44;;;;;;;8.52;5.00;;;;;;;1.24;58.86;98680.75;4950738;29;20087;-75
2023/02/28 10:59:30;;;;;;;6.85;5.43;;;;;;;1.34;58.47;98674.91;4934016;29;20071;-77
2023/02/28 11:01:56;;;;;;;5.80;4.57;;;;;;;1.27;58.25;98678.81;4934497;29;20142;-77
2023/02/28 11:04:22;;;;;;;6.18;4.82;;;;;;;1.39;58.35;98665.00;4950179;29;20150;-77
2023/02/28 11:06:58;;;;;;;6.00;4.55;;;;;;;1.14;58.61;98667.22;4935324;29;20519;-76
2023/02/28 11:09:32;;;;;;;4.13;3.13;;;;;;;0.90;59.12;98669.34;4935269;29;20104;-77
2023/02/28 11:11:59;;;;;;;6.70;5.47;;;;;;;1.07;59.66;98666.69;4917986;29;20036;-77
2023/02/28 11:14:31;;;;;;;6.97;4.68;;;;;;;1.26;58.13;98678.91;4934062;29;20521;-78
2023/02/28 11:17:13;;;;;;;6.38;5.00;;;;;;;1.03;58.59;98659.88;4935322;29;20051;-76
2023/02/28 11:19:45;;;;;;;6.35;4.93;;;;;;;0.94;59.38;98657.72;4917781;29;20043;-77
2023/02/28 11:22:19;;;;;;;5.28;4.38;;;;;;;1.04;59.41;98643.16;4917775;29;20039;-78
2023/02/28 11:24:50;;;;;;;7.80;5.38;;;;;;;1.12;59.01;98643.59;4933010;29;20134;-80
2023/02/28 11:27:31;;;;;;;6.30;4.68;;;;;;;1.03;59.43;98633.56;4933585;29;20142;-78
2023/02/28 11:29:59;;;;;;;6.72;4.18;;;;;;;0.95;59.25;98639.25;4949755;28;20048;-76
2023/02/28 11:32:28;;;;;;;8.25;5.18;;;;;;;0.86;60.22;98652.00;4933486;29;20564;-77
2023/02/28 11:35:02;;;;;;;;;;;;;;;0.82;60.16;98640.78;4934039;29;20066;-79
2023/02/28 11:37:30;;;;;;;9.90;5.72;;;;;;;0.91;60.54;98644.75;4949580;28;20417;-78
2023/02/28 11:39:56;;;;;;;6.07;4.25;;;;;;;0.57;61.13;98640.38;4933574;29;20044;-77
2023/02/28 11:42:35;;;;;;;11.80;4.57;;;;;;;0.26;62.13;98630.50;4933501;29;20039;-77
2023/02/28 11:45:02;;;;;;;5.47;4.22;;;;;;;0.05;62.74;98641.16;4934034;29;20142;-78
2023/02/28 11:47:37;;;;;;;14.07;5.35;;;;;;;0.02;63.48;98632.56;4918826;29;20044;-77
2023/02/28 11:50:13;;;;;;;9.30;4.80;;;;;;;-0.16;62.86;98629.06;4934308;29;20079;-77
2023/02/28 11:52:56;;;;;;;4.47;3.17;;;;;;;-0.25;63.39;98631.19;4950391;29;20047;-78